Jefferson, Louisiana
Current Conditions -  °F | °C
As of 3:53 PM on Sunday 25 Jan 2015 (Local Time) from KMSY Reporting Station
Few Clouds Few Clouds  
Wind Chill: 19°   Ceiling: Unl
Heat Index: 19°   Visibility: 10mi
Dew Point:   Wind: 21mph
Humidity: 37%   Direction: 240°WSW
Pressure: 29.91"   Gusts: 30mph
Location:  29.96°N, 90.17°W
Report Text: KMSY 252153Z 24018G26KT 10SM FEW250 19/04 A2991 RMK AO2 PK WND 23026/2144 SLP132 T01890039
Loading
Personal Weather Stations






























Interactive Weather Map New forecast layout! Learn more

10-Day Weather Forecast

Advertisements
Track Severe Weather on mobile